createdAt,value
2022-08-19T00:00:45.096Z,94795.00
2022-08-19T00:03:11.654Z,94798.25
2022-08-19T00:05:38.202Z,94791.78
2022-08-19T00:08:04.908Z,94788.03
2022-08-19T00:10:31.554Z,94796.59
2022-08-19T00:12:58.087Z,94800.84
2022-08-19T00:15:24.593Z,94791.56
2022-08-19T00:17:51.956Z,94787.31
2022-08-19T00:20:21.808Z,94789.47
2022-08-19T00:22:48.463Z,94788.28
2022-08-19T00:25:15.828Z,94786.44
2022-08-19T00:27:42.338Z,94793.97
2022-08-19T00:30:09.461Z,94793.66
2022-08-19T00:32:36.010Z,94790.88
2022-08-19T00:35:02.561Z,94792.53
2022-08-19T00:37:29.445Z,94787.94
2022-08-19T00:39:56.033Z,94786.72
2022-08-19T00:42:22.913Z,94781.88
2022-08-19T00:44:49.615Z,94788.50
2022-08-19T00:47:16.241Z,94790.94
2022-08-19T00:49:48.303Z,94790.06
2022-08-19T00:52:16.746Z,94788.75
2022-08-19T00:54:44.549Z,94778.00
2022-08-19T00:57:13.339Z,94796.53
2022-08-19T00:59:58.860Z,94806.47
2022-08-19T01:02:28.246Z,94802.59
2022-08-19T01:04:55.284Z,94805.56
2022-08-19T01:07:21.884Z,94807.19
2022-08-19T01:09:50.568Z,94806.47
2022-08-19T01:12:17.847Z,94810.78
2022-08-19T01:14:44.467Z,94817.94
2022-08-19T01:17:12.515Z,94809.41
2022-08-19T01:19:44.073Z,94813.97
2022-08-19T01:22:38.982Z,94826.84
2022-08-19T01:25:09.521Z,94815.84
2022-08-19T01:27:44.048Z,94816.56
2022-08-19T01:30:17.079Z,94816.00
2022-08-19T01:32:43.721Z,94808.00
2022-08-19T01:35:10.623Z,94804.84
2022-08-19T01:37:49.779Z,94809.34
2022-08-19T01:40:17.564Z,94811.72
2022-08-19T01:42:44.090Z,94813.22
2022-08-19T01:45:11.151Z,94815.63
2022-08-19T01:47:37.913Z,94812.09
2022-08-19T01:50:07.264Z,94811.56
2022-08-19T01:52:36.329Z,94798.91
2022-08-19T01:55:02.930Z,94810.38
2022-08-19T01:57:29.597Z,94801.81
2022-08-19T01:59:56.186Z,94805.75
2022-08-19T02:02:22.684Z,94797.72
2022-08-19T02:04:49.164Z,94808.94
2022-08-19T02:07:15.692Z,94808.13
2022-08-19T02:09:42.192Z,94813.41
2022-08-19T02:12:08.793Z,94807.03
2022-08-19T02:14:37.173Z,94814.94
2022-08-19T02:17:04.552Z,94814.94
2022-08-19T02:19:31.044Z,94819.09
2022-08-19T02:21:57.554Z,94817.44
2022-08-19T02:24:24.099Z,94819.00
2022-08-19T02:26:50.588Z,94819.09
2022-08-19T02:29:17.108Z,94823.03
2022-08-19T02:31:43.644Z,94834.38
2022-08-19T02:34:10.185Z,94839.06
2022-08-19T02:36:36.859Z,94839.81
2022-08-19T02:39:09.555Z,94840.72
2022-08-19T02:41:36.144Z,94843.19
2022-08-19T02:44:26.745Z,94850.16
2022-08-19T02:46:50.564Z,94860.28
2022-08-19T02:49:18.918Z,94855.41
2022-08-19T02:51:46.951Z,94861.28
2022-08-19T02:54:14.126Z,94862.03
2022-08-19T02:56:42.372Z,94862.06
2022-08-19T02:59:08.874Z,94866.59
2022-08-19T03:01:37.055Z,94865.72
2022-08-19T03:04:06.420Z,94868.84
2022-08-19T03:06:33.339Z,94862.41
2022-08-19T03:08:59.816Z,94876.47
2022-08-19T03:11:29.778Z,94873.84
2022-08-19T03:13:56.404Z,94871.22
2022-08-19T03:16:27.967Z,94873.69
2022-08-19T03:18:56.743Z,94879.91
2022-08-19T03:21:25.639Z,94878.53
2022-08-19T03:23:55.549Z,94874.78
2022-08-19T03:26:22.073Z,94878.19
2022-08-19T03:28:51.104Z,94872.28
2022-08-19T03:31:43.319Z,94882.56
2022-08-19T03:34:08.595Z,94877.19
2022-08-19T03:36:35.079Z,94873.41
2022-08-19T03:39:01.986Z,94873.84
2022-08-19T03:41:34.270Z,94868.72
2022-08-19T03:44:12.678Z,94868.75
2022-08-19T03:46:44.965Z,94870.09
2022-08-19T03:49:11.623Z,94873.56
2022-08-19T03:51:41.916Z,94882.63
2022-08-19T03:54:11.536Z,94879.94
2022-08-19T03:56:40.016Z,94885.03
2022-08-19T03:59:09.598Z,94889.50
2022-08-19T04:01:36.476Z,94894.06
2022-08-19T04:04:04.837Z,94893.31
2022-08-19T04:06:39.422Z,94899.75
2022-08-19T04:09:09.947Z,94901.31
2022-08-19T04:11:48.756Z,94908.88
2022-08-19T04:14:35.720Z,94901.34
2022-08-19T04:17:03.157Z,94902.69
2022-08-19T04:19:31.300Z,94899.13
2022-08-19T04:21:58.160Z,94908.19
2022-08-19T04:24:24.910Z,94904.56
2022-08-19T04:26:53.029Z,94909.81
2022-08-19T04:29:25.052Z,94909.44
2022-08-19T04:31:52.916Z,94906.81
2022-08-19T04:34:21.394Z,94913.47
2022-08-19T04:36:47.874Z,94910.47
2022-08-19T04:39:17.078Z,94916.00
2022-08-19T04:41:44.547Z,94920.81
2022-08-19T04:44:12.883Z,94922.66
2022-08-19T04:46:50.818Z,94919.50
2022-08-19T04:49:20.147Z,94923.19
2022-08-19T04:51:47.620Z,94921.91
2022-08-19T04:54:15.060Z,94927.09
2022-08-19T04:56:53.982Z,94927.38
2022-08-19T04:59:21.491Z,94937.84
2022-08-19T05:01:48.594Z,94938.94
2022-08-19T05:04:21.380Z,94936.75
2022-08-19T05:06:49.325Z,94945.09
2022-08-19T05:09:16.789Z,94934.84
2022-08-19T05:11:44.020Z,94945.09
2022-08-19T05:14:11.092Z,94950.38
2022-08-19T05:16:38.735Z,94944.66
2022-08-19T05:19:05.202Z,94954.81
2022-08-19T05:21:32.334Z,94947.91
2022-08-19T05:23:59.091Z,94958.94
2022-08-19T05:26:27.018Z,94963.19
2022-08-19T05:28:54.800Z,94970.16
2022-08-19T05:31:21.949Z,94966.41
2022-08-19T05:33:48.543Z,94973.66
2022-08-19T05:36:15.079Z,94974.69
2022-08-19T05:38:41.574Z,94975.81
2022-08-19T05:41:12.434Z,94982.19
2022-08-19T05:43:41.364Z,94980.53
2022-08-19T05:46:08.380Z,94979.84
2022-08-19T05:48:35.790Z,94977.38
2022-08-19T05:51:06.710Z,94976.94
2022-08-19T05:53:36.848Z,94982.53
2022-08-19T05:56:08.669Z,94981.47
2022-08-19T05:58:36.963Z,94981.53
2022-08-19T06:01:05.109Z,94990.78
2022-08-19T06:03:35.084Z,94987.63
2022-08-19T06:06:01.629Z,94998.97
2022-08-19T06:08:34.321Z,94997.88
2022-08-19T06:11:24.681Z,95000.84
2022-08-19T06:13:59.503Z,95005.94
2022-08-19T06:16:27.394Z,95009.09
2022-08-19T06:18:54.216Z,95015.53
2022-08-19T06:21:24.745Z,95017.91
2022-08-19T06:23:52.418Z,95018.50
2022-08-19T06:26:20.177Z,95015.81
2022-08-19T06:28:48.280Z,95023.06
2022-08-19T06:31:27.021Z,95030.31
2022-08-19T06:33:53.965Z,95026.25
2022-08-19T06:36:27.205Z,95030.47
2022-08-19T06:38:56.812Z,95030.59
2022-08-19T06:41:23.358Z,95040.69
2022-08-19T06:43:49.860Z,95032.88
2022-08-19T06:46:21.151Z,95043.09
2022-08-19T06:48:48.198Z,95042.25
2022-08-19T06:51:16.168Z,95045.47
2022-08-19T06:53:47.544Z,95048.41
2022-08-19T06:56:19.813Z,95055.78
2022-08-19T06:58:46.331Z,95051.78
2022-08-19T07:01:13.014Z,95053.84
2022-08-19T07:03:39.956Z,95059.03
2022-08-19T07:06:43.373Z,95055.28
2022-08-19T07:09:08.291Z,95057.88
2022-08-19T07:11:35.543Z,95066.16
2022-08-19T07:14:02.696Z,95070.41
2022-08-19T07:16:30.461Z,95080.06
2022-08-19T07:18:57.172Z,95075.19
2022-08-19T07:21:27.042Z,95075.00
2022-08-19T07:23:57.629Z,95081.13
2022-08-19T07:26:30.817Z,95082.88
2022-08-19T07:28:59.252Z,95074.13
2022-08-19T07:31:27.333Z,95088.06
2022-08-19T07:33:57.847Z,95078.97
2022-08-19T07:36:27.296Z,95070.81
2022-08-19T07:38:53.885Z,95086.59
2022-08-19T07:41:23.444Z,95086.81
2022-08-19T07:43:50.574Z,95089.41
2022-08-19T07:46:17.549Z,95090.88
2022-08-19T07:48:45.215Z,95083.06
2022-08-19T07:51:12.327Z,95083.69
2022-08-19T07:53:41.170Z,95091.97
2022-08-19T07:56:08.024Z,95087.22
2022-08-19T07:58:40.216Z,95092.59
2022-08-19T08:01:09.182Z,95096.13
2022-08-19T08:03:37.810Z,95101.44
2022-08-19T08:06:04.402Z,95103.50
2022-08-19T08:08:33.509Z,95104.91
2022-08-19T08:11:01.026Z,95104.03
2022-08-19T08:13:29.078Z,95113.81
2022-08-19T08:15:56.958Z,95111.97
2022-08-19T08:18:28.146Z,95109.25
2022-08-19T08:20:57.743Z,95103.00
2022-08-19T08:23:24.971Z,95106.22
2022-08-19T08:25:53.111Z,95109.78
2022-08-19T08:28:19.950Z,95106.34
2022-08-19T08:30:47.893Z,95115.16
2022-08-19T08:33:17.908Z,95121.19
2022-08-19T08:35:59.785Z,95121.28
2022-08-19T08:38:26.708Z,95117.78
2022-08-19T08:41:01.090Z,95127.06
2022-08-19T08:43:34.897Z,95121.69
2022-08-19T08:46:04.436Z,95130.03
2022-08-19T08:48:37.445Z,95130.94
2022-08-19T08:51:09.303Z,95138.56
2022-08-19T08:53:40.464Z,95142.84
2022-08-19T08:56:10.247Z,95144.38
2022-08-19T08:59:19.375Z,95147.00
2022-08-19T09:01:45.883Z,95131.66
2022-08-19T09:04:13.484Z,95140.47
2022-08-19T09:06:49.721Z,95133.09
2022-08-19T09:09:32.134Z,95137.31
2022-08-19T09:12:14.821Z,95146.94
2022-08-19T09:14:54.874Z,95151.31
2022-08-19T09:17:24.531Z,95151.50
2022-08-19T09:19:54.553Z,95159.13
2022-08-19T09:22:25.962Z,95160.00
2022-08-19T09:24:54.112Z,95156.53
2022-08-19T09:27:21.956Z,95163.53
2022-08-19T09:30:10.591Z,95164.25
2022-08-19T09:32:37.763Z,95167.09
2022-08-19T09:35:08.860Z,95167.16
2022-08-19T09:37:37.022Z,95169.09
2022-08-19T09:40:04.721Z,95179.38
2022-08-19T09:42:35.507Z,95173.78
2022-08-19T09:45:05.318Z,95182.97
2022-08-19T09:47:37.711Z,95187.19
2022-08-19T09:50:09.368Z,95187.22
2022-08-19T09:52:38.307Z,95188.53
2022-08-19T09:55:09.845Z,95190.81
2022-08-19T09:57:36.768Z,95192.06
2022-08-19T10:00:05.808Z,95193.69
2022-08-19T10:02:32.370Z,95195.47
2022-08-19T10:05:00.970Z,95192.84
2022-08-19T10:07:36.084Z,95194.28
2022-08-19T10:10:06.635Z,95186.53
2022-08-19T10:12:35.469Z,95192.19
2022-08-19T10:15:02.891Z,95195.81
2022-08-19T10:17:31.620Z,95191.38
2022-08-19T10:20:00.824Z,95187.66
2022-08-19T10:22:27.516Z,95195.47
2022-08-19T10:24:54.470Z,95185.06
2022-08-19T10:27:21.220Z,95199.06
2022-08-19T10:29:47.887Z,95192.00
2022-08-19T10:32:14.538Z,95191.13
2022-08-19T10:34:48.303Z,95188.31
2022-08-19T10:37:22.839Z,95190.91
2022-08-19T10:39:56.040Z,95197.53
2022-08-19T10:42:22.723Z,95194.03
2022-08-19T10:44:49.228Z,95199.63
2022-08-19T10:47:25.420Z,95194.50
2022-08-19T10:49:53.996Z,95197.25
2022-08-19T10:52:32.300Z,95201.59
2022-08-19T10:54:59.194Z,95195.19
2022-08-19T10:57:52.336Z,95196.28
2022-08-19T11:00:20.840Z,95195.91
2022-08-19T11:02:48.209Z,95203.00
2022-08-19T11:05:15.385Z,95199.53
2022-08-19T11:07:42.961Z,95197.19
2022-08-19T11:10:17.137Z,95193.44
2022-08-19T11:12:46.240Z,95202.25
2022-08-19T11:15:12.957Z,95199.13
2022-08-19T11:17:39.946Z,95197.47
2022-08-19T11:20:09.338Z,95194.69
2022-08-19T11:22:40.935Z,95191.88
2022-08-19T11:25:11.169Z,95199.03
2022-08-19T11:27:41.730Z,95197.84
2022-08-19T11:30:12.768Z,95201.16
2022-08-19T11:32:43.565Z,95205.88
2022-08-19T11:35:13.810Z,95196.59
2022-08-19T11:37:40.311Z,95200.97
2022-08-19T11:40:07.684Z,95207.63
2022-08-19T11:42:36.496Z,95205.16
2022-08-19T11:45:04.398Z,95207.38
2022-08-19T11:47:31.445Z,95215.88
2022-08-19T11:50:01.041Z,95213.84
2022-08-19T11:52:27.956Z,95224.25
2022-08-19T11:54:55.348Z,95211.53
2022-08-19T11:57:22.034Z,95212.94
2022-08-19T11:59:53.210Z,95219.28
2022-08-19T12:02:20.364Z,95220.72
2022-08-19T12:04:46.855Z,95216.16
2022-08-19T12:07:13.721Z,95216.75
2022-08-19T12:09:42.869Z,95212.59
2022-08-19T12:12:10.176Z,95200.09
2022-08-19T12:14:36.833Z,95206.38
2022-08-19T12:17:03.542Z,95206.59
2022-08-19T12:19:30.052Z,95206.47
2022-08-19T12:22:00.240Z,95208.28
2022-08-19T12:24:26.737Z,95207.41
2022-08-19T12:26:54.022Z,95201.78
2022-08-19T12:29:23.836Z,95204.03
2022-08-19T12:31:51.565Z,95204.19
2022-08-19T12:34:18.089Z,95203.84
2022-08-19T12:36:47.450Z,95211.19
2022-08-19T12:39:13.943Z,95207.59
2022-08-19T12:41:47.556Z,95210.47
2022-08-19T12:44:21.014Z,95222.69
2022-08-19T12:46:56.824Z,95218.00
2022-08-19T12:49:53.387Z,95223.56
2022-08-19T12:52:11.411Z,95224.22
2022-08-19T12:54:40.789Z,95221.53
2022-08-19T12:57:08.614Z,95219.00
2022-08-19T12:59:36.476Z,95217.44
2022-08-19T13:02:04.624Z,95223.34
2022-08-19T13:04:31.134Z,95220.63
2022-08-19T13:06:58.107Z,95228.28
2022-08-19T13:09:24.888Z,95216.44
2022-08-19T13:11:51.806Z,95226.41
2022-08-19T13:14:18.557Z,95220.72
2022-08-19T13:16:45.479Z,95223.75
2022-08-19T13:19:11.976Z,95220.78
2022-08-19T13:21:38.541Z,95222.50
2022-08-19T13:24:05.226Z,95220.16
2022-08-19T13:26:31.730Z,95217.94
2022-08-19T13:28:58.376Z,95218.47
2022-08-19T13:31:27.355Z,95216.78
2022-08-19T13:33:53.936Z,95228.69
2022-08-19T13:36:20.754Z,95224.22
2022-08-19T13:38:49.540Z,95222.81
2022-08-19T13:41:16.126Z,95216.13
2022-08-19T13:43:42.680Z,95213.91
2022-08-19T13:46:11.515Z,95215.53
2022-08-19T13:48:38.185Z,95217.53
2022-08-19T13:51:06.405Z,95211.69
2022-08-19T13:53:33.355Z,95208.16
2022-08-19T13:55:59.956Z,95203.66
2022-08-19T13:58:26.475Z,95211.66
2022-08-19T14:00:53.123Z,95214.56
2022-08-19T14:03:20.233Z,95218.81
2022-08-19T14:05:47.055Z,95217.94
2022-08-19T14:08:13.879Z,95218.09
2022-08-19T14:10:40.700Z,95215.34
2022-08-19T14:13:07.407Z,95215.41
2022-08-19T14:15:33.958Z,95218.22
2022-08-19T14:18:00.599Z,95216.75
2022-08-19T14:20:27.672Z,95220.34
2022-08-19T14:22:55.006Z,95212.09
2022-08-19T14:25:24.516Z,95219.81
2022-08-19T14:27:51.008Z,95218.38
2022-08-19T14:30:22.316Z,95221.94
2022-08-19T14:32:48.821Z,95218.66
2022-08-19T14:35:16.858Z,95213.91
2022-08-19T14:37:45.674Z,95216.56
2022-08-19T14:40:15.080Z,95212.88
2022-08-19T14:42:42.169Z,95212.69
2022-08-19T14:45:10.015Z,95220.94
2022-08-19T14:47:40.005Z,95221.28
2022-08-19T14:50:10.571Z,95225.09
2022-08-19T14:52:48.197Z,95221.56
2022-08-19T14:55:16.335Z,95226.31
2022-08-19T14:57:43.903Z,95224.63
2022-08-19T15:00:11.943Z,95231.31
2022-08-19T15:02:38.478Z,95235.16
2022-08-19T15:05:05.427Z,95237.06
2022-08-19T15:07:32.022Z,95247.38
2022-08-19T15:09:58.631Z,95241.19
2022-08-19T15:12:25.376Z,95250.19
2022-08-19T15:14:52.981Z,95243.31
2022-08-19T15:17:43.369Z,95247.50
2022-08-19T15:20:14.051Z,95250.81
2022-08-19T15:22:40.668Z,95254.28
2022-08-19T15:25:08.860Z,95255.16
2022-08-19T15:27:39.473Z,95253.63
2022-08-19T15:30:07.701Z,95254.81
2022-08-19T15:32:35.423Z,95257.06
2022-08-19T15:35:01.960Z,95251.28
2022-08-19T15:37:30.594Z,95258.00
2022-08-19T15:39:58.738Z,95255.91
2022-08-19T15:42:29.349Z,95259.53
2022-08-19T15:45:00.382Z,95263.13
2022-08-19T15:47:35.239Z,95259.63
2022-08-19T15:50:15.559Z,95260.19
2022-08-19T15:52:52.929Z,95269.03
2022-08-19T15:55:33.412Z,95255.00
2022-08-19T15:58:06.768Z,95258.63
2022-08-19T16:00:34.320Z,95261.69
2022-08-19T16:03:00.935Z,95267.94
2022-08-19T16:05:27.542Z,95255.88
2022-08-19T16:07:54.210Z,95266.66
2022-08-19T16:10:26.027Z,95265.72
2022-08-19T16:12:54.864Z,95263.69
2022-08-19T16:15:22.202Z,95266.31
2022-08-19T16:17:55.485Z,95270.09
2022-08-19T16:20:25.537Z,95275.22
2022-08-19T16:22:53.701Z,95280.34
2022-08-19T16:25:20.891Z,95278.66
2022-08-19T16:27:54.234Z,95282.22
2022-08-19T16:30:34.756Z,95281.56
2022-08-19T16:33:01.270Z,95276.03
2022-08-19T16:35:27.760Z,95276.44
2022-08-19T16:37:54.387Z,95281.75
2022-08-19T16:40:21.073Z,95282.22
2022-08-19T16:42:48.306Z,95293.69
2022-08-19T16:45:14.978Z,95288.16
2022-08-19T16:47:41.549Z,95288.44
2022-08-19T16:50:08.906Z,95291.47
2022-08-19T16:52:35.596Z,95280.72
2022-08-19T16:55:02.329Z,95277.19
2022-08-19T16:57:28.795Z,95272.53
2022-08-19T16:59:57.403Z,95283.19
2022-08-19T17:02:29.594Z,95280.50
2022-08-19T17:05:01.598Z,95278.44
2022-08-19T17:07:28.558Z,95280.97
2022-08-19T17:09:55.946Z,95271.31
2022-08-19T17:12:30.349Z,95266.13
2022-08-19T17:14:58.578Z,95277.81
2022-08-19T17:17:28.875Z,95270.72
2022-08-19T17:19:56.029Z,95272.91
2022-08-19T17:22:22.804Z,95276.38
2022-08-19T17:24:49.309Z,95284.50
2022-08-19T17:27:15.894Z,95273.41
2022-08-19T17:29:46.753Z,95281.13
2022-08-19T17:32:14.597Z,95276.41
2022-08-19T17:34:41.084Z,95271.69
2022-08-19T17:37:08.023Z,95273.00
2022-08-19T17:39:39.002Z,95272.97
2022-08-19T17:42:06.936Z,95274.19
2022-08-19T17:44:35.174Z,95273.84
2022-08-19T17:47:01.778Z,95278.59
2022-08-19T17:49:28.730Z,95276.88
2022-08-19T17:51:55.380Z,95277.44
2022-08-19T17:54:22.282Z,95275.69
2022-08-19T17:56:48.925Z,95274.53
2022-08-19T17:59:16.179Z,95276.66
2022-08-19T18:01:53.630Z,95276.03
2022-08-19T18:04:23.877Z,95279.13
2022-08-19T18:06:53.120Z,95278.03
2022-08-19T18:09:30.107Z,95276.88
2022-08-19T18:12:12.586Z,95287.38
2022-08-19T18:14:40.279Z,95279.44
2022-08-19T18:17:14.623Z,95287.97
2022-08-19T18:19:43.594Z,95296.66
2022-08-19T18:22:22.927Z,95290.81
2022-08-19T18:24:49.754Z,95306.75
2022-08-19T18:27:16.744Z,95311.75
2022-08-19T18:29:43.624Z,95310.38
2022-08-19T18:32:14.671Z,95311.28
2022-08-19T18:34:42.296Z,95302.44
2022-08-19T18:37:09.237Z,95316.91
2022-08-19T18:39:36.219Z,95320.09
2022-08-19T18:42:17.236Z,95318.94
2022-08-19T18:44:45.140Z,95323.59
2022-08-19T18:47:12.051Z,95316.63
2022-08-19T18:49:38.634Z,95320.69
2022-08-19T18:52:05.173Z,95323.28
2022-08-19T18:54:32.462Z,95327.72
2022-08-19T18:56:59.322Z,95322.16
2022-08-19T18:59:27.518Z,95328.75
2022-08-19T19:01:55.340Z,95336.63
2022-08-19T19:04:27.142Z,95329.88
2022-08-19T19:06:54.066Z,95327.66
2022-08-19T19:09:22.799Z,95338.59
2022-08-19T19:11:52.410Z,95328.47
2022-08-19T19:14:48.235Z,95344.31
2022-08-19T19:20:10.532Z,95351.16
2022-08-19T19:22:40.595Z,95349.09
2022-08-19T19:25:07.483Z,95350.13
2022-08-19T19:27:34.164Z,95357.44
2022-08-19T19:30:00.738Z,95354.56
2022-08-19T19:32:29.092Z,95364.78
2022-08-19T19:34:56.038Z,95364.75
2022-08-19T19:37:24.534Z,95371.25
2022-08-19T19:39:51.251Z,95374.16
2022-08-19T19:42:21.254Z,95365.88
2022-08-19T19:44:50.375Z,95360.00
2022-08-19T19:47:17.517Z,95363.53
2022-08-19T19:50:10.844Z,95367.28
2022-08-19T19:52:32.240Z,95368.13
2022-08-19T19:54:58.795Z,95368.69
2022-08-19T19:57:28.402Z,95370.28
2022-08-19T19:59:56.115Z,95378.88
2022-08-19T20:02:22.647Z,95369.72
2022-08-19T20:04:49.253Z,95379.16
2022-08-19T20:07:15.856Z,95371.97
2022-08-19T20:09:58.906Z,95372.50
2022-08-19T20:12:26.438Z,95376.25
2022-08-19T20:14:53.009Z,95382.19
2022-08-19T20:17:19.589Z,95381.94
2022-08-19T20:19:46.255Z,95384.88
2022-08-19T20:22:13.671Z,95385.41
2022-08-19T20:24:40.277Z,95392.38
2022-08-19T20:27:06.812Z,95396.97
2022-08-19T20:29:39.448Z,95391.84
2022-08-19T20:32:07.672Z,95387.84
2022-08-19T20:34:34.166Z,95389.97
2022-08-19T20:37:00.673Z,95395.06
2022-08-19T20:39:27.404Z,95387.56
2022-08-19T20:41:54.016Z,95397.75
2022-08-19T20:44:20.542Z,95394.47
2022-08-19T20:46:54.616Z,95382.16
2022-08-19T20:49:23.058Z,95391.84
2022-08-19T20:51:53.988Z,95390.53
2022-08-19T20:54:20.559Z,95391.28
2022-08-19T20:56:47.054Z,95391.56
2022-08-19T20:59:13.588Z,95378.44
2022-08-19T21:01:40.103Z,95380.84
2022-08-19T21:04:06.656Z,95387.00
2022-08-19T21:06:33.132Z,95379.00
2022-08-19T21:08:59.633Z,95376.84
2022-08-19T21:11:26.186Z,95381.13
2022-08-19T21:13:52.737Z,95376.03
2022-08-19T21:16:19.366Z,95375.22
2022-08-19T21:18:45.897Z,95374.66
2022-08-19T21:21:12.514Z,95383.25
2022-08-19T21:23:39.242Z,95378.69
2022-08-19T21:26:06.279Z,95380.03
2022-08-19T21:28:36.053Z,95381.38
2022-08-19T21:31:07.625Z,95388.34
2022-08-19T21:33:37.251Z,95396.88
2022-08-19T21:36:06.950Z,95390.16
2022-08-19T21:38:33.574Z,95400.91
2022-08-19T21:43:42.220Z,95398.47
2022-08-19T21:46:08.848Z,95403.88
2022-08-19T21:48:35.924Z,95406.81
2022-08-19T21:51:02.439Z,95403.56
2022-08-19T21:53:34.213Z,95399.81
2022-08-19T21:56:01.705Z,95390.22
2022-08-19T21:58:30.690Z,95397.19
2022-08-19T22:01:01.586Z,95398.78
2022-08-19T22:03:28.943Z,95387.00
2022-08-19T22:05:55.465Z,95389.16
2022-08-19T22:08:21.971Z,95383.78
2022-08-19T22:10:48.518Z,95377.13
2022-08-19T22:13:15.034Z,95379.53
2022-08-19T22:15:41.625Z,95381.66
2022-08-19T22:18:08.133Z,95384.59
2022-08-19T22:20:34.665Z,95382.75
2022-08-19T22:23:04.247Z,95388.13
2022-08-19T22:25:36.384Z,95397.72
2022-08-19T22:28:07.909Z,95395.84
2022-08-19T22:30:38.892Z,95405.50
2022-08-19T22:33:12.179Z,95408.41
2022-08-19T22:35:40.174Z,95408.44
2022-08-19T22:38:08.065Z,95403.91
2022-08-19T22:40:37.842Z,95398.56
2022-08-19T22:43:07.615Z,95397.22
2022-08-19T22:45:34.850Z,95400.72
2022-08-19T22:48:01.873Z,95382.47
2022-08-19T22:50:28.636Z,95384.88
2022-08-19T22:52:58.230Z,95374.72
2022-08-19T22:55:26.103Z,95370.13
2022-08-19T22:57:53.714Z,95377.34
2022-08-19T23:00:22.018Z,95377.84
2022-08-19T23:02:51.935Z,95375.41
2022-08-19T23:05:21.781Z,95378.06
2022-08-19T23:07:52.310Z,95377.84
2022-08-19T23:10:27.436Z,95372.50
2022-08-19T23:12:56.840Z,95375.69
2022-08-19T23:15:26.969Z,95369.78
2022-08-19T23:17:55.585Z,95378.03
2022-08-19T23:20:23.939Z,95372.72
2022-08-19T23:22:50.439Z,95372.72
2022-08-19T23:25:21.266Z,95370.31
2022-08-19T23:27:50.803Z,95367.88
2022-08-19T23:30:17.368Z,95370.00
2022-08-19T23:32:43.946Z,95360.38
2022-08-19T23:35:10.450Z,95366.25
2022-08-19T23:37:37.005Z,95364.94
2022-08-19T23:40:05.683Z,95369.78
2022-08-19T23:42:32.362Z,95362.03
2022-08-19T23:45:03.989Z,95359.59
2022-08-19T23:47:30.525Z,95365.25
2022-08-19T23:49:57.082Z,95366.06
2022-08-19T23:52:23.720Z,95356.41
2022-08-19T23:54:50.238Z,95357.75
2022-08-19T23:57:16.764Z,95355.56
2022-08-19T23:59:44.037Z,95352.59
